sensor_id;sensor_type;location;lat;lon;timestamp;temperature;humidity
5842;DHT22;2947;52.276;9.946;2023-05-10T00:01:24;13.50;99.90
5842;DHT22;2947;52.276;9.946;2023-05-10T00:03:50;13.50;99.90
5842;DHT22;2947;52.276;9.946;2023-05-10T00:06:15;13.50;99.90
5842;DHT22;2947;52.276;9.946;2023-05-10T00:08:41;13.60;99.90
5842;DHT22;2947;52.276;9.946;2023-05-10T00:11:07;13.60;99.90
5842;DHT22;2947;52.276;9.946;2023-05-10T00:13:33;13.70;99.90
5842;DHT22;2947;52.276;9.946;2023-05-10T00:15:58;13.70;99.90
5842;DHT22;2947;52.276;9.946;2023-05-10T00:18:24;13.70;99.90
5842;DHT22;2947;52.276;9.946;2023-05-10T00:20:50;13.70;99.90
5842;DHT22;2947;52.276;9.946;2023-05-10T00:23:16;13.70;99.90
5842;DHT22;2947;52.276;9.946;2023-05-10T00:25:42;13.70;99.90
5842;DHT22;2947;52.276;9.946;2023-05-10T00:28:07;13.70;99.90
5842;DHT22;2947;52.276;9.946;2023-05-10T00:30:33;13.80;99.90
5842;DHT22;2947;52.276;9.946;2023-05-10T00:32:59;13.80;99.90
5842;DHT22;2947;52.276;9.946;2023-05-10T00:35:24;13.80;99.90
5842;DHT22;2947;52.276;9.946;2023-05-10T00:37:51;13.80;99.90
5842;DHT22;2947;52.276;9.946;2023-05-10T00:40:17;13.80;99.90
5842;DHT22;2947;52.276;9.946;2023-05-10T00:42:42;13.20;99.90
5842;DHT22;2947;52.276;9.946;2023-05-10T00:45:08;13.70;99.90
5842;DHT22;2947;52.276;9.946;2023-05-10T00:47:34;13.70;99.90
5842;DHT22;2947;52.276;9.946;2023-05-10T00:50:00;13.70;99.90
5842;DHT22;2947;52.276;9.946;2023-05-10T00:52:27;13.70;99.90
5842;DHT22;2947;52.276;9.946;2023-05-10T00:54:54;13.60;99.90
5842;DHT22;2947;52.276;9.946;2023-05-10T00:57:21;13.60;99.90
5842;DHT22;2947;52.276;9.946;2023-05-10T00:59:46;13.60;99.90
5842;DHT22;2947;52.276;9.946;2023-05-10T01:02:13;13.50;99.90
5842;DHT22;2947;52.276;9.946;2023-05-10T01:04:39;13.50;99.90
5842;DHT22;2947;52.276;9.946;2023-05-10T01:07:04;13.50;99.90
5842;DHT22;2947;52.276;9.946;2023-05-10T01:09:31;13.50;99.90
5842;DHT22;2947;52.276;9.946;2023-05-10T01:11:57;13.50;99.90
5842;DHT22;2947;52.276;9.946;2023-05-10T01:14:24;13.40;99.90
5842;DHT22;2947;52.276;9.946;2023-05-10T01:16:51;13.40;99.90
5842;DHT22;2947;52.276;9.946;2023-05-10T01:19:28;13.30;99.90
5842;DHT22;2947;52.276;9.946;2023-05-10T01:33:18;13.20;99.90
5842;DHT22;2947;52.276;9.946;2023-05-10T01:38:28;13.10;99.90
5842;DHT22;2947;52.276;9.946;2023-05-10T01:41:14;13.10;99.90
5842;DHT22;2947;52.276;9.946;2023-05-10T01:47:02;13.10;99.90
5842;DHT22;2947;52.276;9.946;2023-05-10T01:49:43;13.10;99.90
5842;DHT22;2947;52.276;9.946;2023-05-10T01:52:18;13.10;99.90
5842;DHT22;2947;52.276;9.946;2023-05-10T01:54:55;13.00;99.90
5842;DHT22;2947;52.276;9.946;2023-05-10T01:57:23;13.10;99.90
5842;DHT22;2947;52.276;9.946;2023-05-10T01:59:52;13.10;99.90
5842;DHT22;2947;52.276;9.946;2023-05-10T02:02:22;13.00;99.90
5842;DHT22;2947;52.276;9.946;2023-05-10T02:04:50;13.00;99.90
5842;DHT22;2947;52.276;9.946;2023-05-10T02:07:17;13.00;99.90
5842;DHT22;2947;52.276;9.946;2023-05-10T02:09:44;13.00;99.90
5842;DHT22;2947;52.276;9.946;2023-05-10T02:12:13;12.90;99.90
5842;DHT22;2947;52.276;9.946;2023-05-10T02:14:41;13.00;99.90
5842;DHT22;2947;52.276;9.946;2023-05-10T02:17:08;13.00;99.90
5842;DHT22;2947;52.276;9.946;2023-05-10T02:19:37;12.90;99.90
5842;DHT22;2947;52.276;9.946;2023-05-10T02:22:05;12.90;99.90
5842;DHT22;2947;52.276;9.946;2023-05-10T02:24:32;12.90;99.90
5842;DHT22;2947;52.276;9.946;2023-05-10T02:26:59;12.90;99.90
5842;DHT22;2947;52.276;9.946;2023-05-10T02:29:26;12.90;99.90
5842;DHT22;2947;52.276;9.946;2023-05-10T02:31:53;12.90;99.90
5842;DHT22;2947;52.276;9.946;2023-05-10T02:34:21;12.90;99.90
5842;DHT22;2947;52.276;9.946;2023-05-10T02:36:48;12.80;99.90
5842;DHT22;2947;52.276;9.946;2023-05-10T02:39:14;12.70;1.00
5842;DHT22;2947;52.276;9.946;2023-05-10T02:41:42;12.70;1.00
5842;DHT22;2947;52.276;9.946;2023-05-10T02:44:09;12.70;1.00
5842;DHT22;2947;52.276;9.946;2023-05-10T02:46:36;12.70;1.00
5842;DHT22;2947;52.276;9.946;2023-05-10T02:49:03;12.70;1.00
5842;DHT22;2947;52.276;9.946;2023-05-10T02:51:31;12.70;1.00
5842;DHT22;2947;52.276;9.946;2023-05-10T02:54:06;12.70;1.00
5842;DHT22;2947;52.276;9.946;2023-05-10T02:56:36;12.70;1.00
5842;DHT22;2947;52.276;9.946;2023-05-10T02:59:06;12.70;1.00
5842;DHT22;2947;52.276;9.946;2023-05-10T03:01:32;12.70;1.00
5842;DHT22;2947;52.276;9.946;2023-05-10T03:03:58;12.70;1.00
5842;DHT22;2947;52.276;9.946;2023-05-10T03:06:23;12.70;1.00
5842;DHT22;2947;52.276;9.946;2023-05-10T03:08:49;12.60;1.00
5842;DHT22;2947;52.276;9.946;2023-05-10T03:20:10;12.60;99.90
5842;DHT22;2947;52.276;9.946;2023-05-10T03:22:55;12.60;99.90
5842;DHT22;2947;52.276;9.946;2023-05-10T03:25:23;12.60;1.00
5842;DHT22;2947;52.276;9.946;2023-05-10T03:27:49;12.60;1.00
5842;DHT22;2947;52.276;9.946;2023-05-10T03:30:16;12.50;99.90
5842;DHT22;2947;52.276;9.946;2023-05-10T03:32:42;12.50;99.90
5842;DHT22;2947;52.276;9.946;2023-05-10T03:35:08;12.40;1.00
5842;DHT22;2947;52.276;9.946;2023-05-10T03:37:34;12.40;32.90
5842;DHT22;2947;52.276;9.946;2023-05-10T03:40:01;12.40;99.90
5842;DHT22;2947;52.276;9.946;2023-05-10T03:42:27;12.40;99.90
5842;DHT22;2947;52.276;9.946;2023-05-10T03:44:53;12.40;1.00
5842;DHT22;2947;52.276;9.946;2023-05-10T03:47:19;12.30;1.00
5842;DHT22;2947;52.276;9.946;2023-05-10T03:49:45;12.30;99.90
5842;DHT22;2947;52.276;9.946;2023-05-10T03:52:11;12.20;99.90
5842;DHT22;2947;52.276;9.946;2023-05-10T03:54:37;12.20;1.00
5842;DHT22;2947;52.276;9.946;2023-05-10T03:57:03;12.20;35.20
5842;DHT22;2947;52.276;9.946;2023-05-10T03:59:29;12.20;1.00
5842;DHT22;2947;52.276;9.946;2023-05-10T04:01:55;12.20;43.30
5842;DHT22;2947;52.276;9.946;2023-05-10T04:04:21;12.10;1.00
5842;DHT22;2947;52.276;9.946;2023-05-10T04:06:47;12.10;99.90
5842;DHT22;2947;52.276;9.946;2023-05-10T04:09:13;12.10;99.90
5842;DHT22;2947;52.276;9.946;2023-05-10T04:11:39;12.10;99.90
5842;DHT22;2947;52.276;9.946;2023-05-10T04:14:05;12.10;99.90
5842;DHT22;2947;52.276;9.946;2023-05-10T04:16:30;12.00;44.60
5842;DHT22;2947;52.276;9.946;2023-05-10T04:18:56;12.00;99.90
5842;DHT22;2947;52.276;9.946;2023-05-10T04:21:22;12.00;99.90
5842;DHT22;2947;52.276;9.946;2023-05-10T04:23:48;12.00;1.00
5842;DHT22;2947;52.276;9.946;2023-05-10T04:26:14;12.00;1.00
5842;DHT22;2947;52.276;9.946;2023-05-10T04:28:40;12.10;1.00
5842;DHT22;2947;52.276;9.946;2023-05-10T04:31:08;12.00;1.00
5842;DHT22;2947;52.276;9.946;2023-05-10T04:33:35;12.10;99.90
5842;DHT22;2947;52.276;9.946;2023-05-10T04:36:01;12.10;1.00
5842;DHT22;2947;52.276;9.946;2023-05-10T04:38:28;12.10;99.90
5842;DHT22;2947;52.276;9.946;2023-05-10T04:40:54;12.10;99.90
5842;DHT22;2947;52.276;9.946;2023-05-10T04:43:20;12.10;99.90
5842;DHT22;2947;52.276;9.946;2023-05-10T04:45:46;12.00;99.90
5842;DHT22;2947;52.276;9.946;2023-05-10T04:48:11;12.10;99.90
5842;DHT22;2947;52.276;9.946;2023-05-10T04:50:37;12.10;1.00
5842;DHT22;2947;52.276;9.946;2023-05-10T04:53:04;12.10;1.00
5842;DHT22;2947;52.276;9.946;2023-05-10T04:55:30;12.10;1.00
5842;DHT22;2947;52.276;9.946;2023-05-10T04:57:56;12.10;1.00
5842;DHT22;2947;52.276;9.946;2023-05-10T05:00:22;12.00;1.00
5842;DHT22;2947;52.276;9.946;2023-05-10T05:02:48;12.10;1.00
5842;DHT22;2947;52.276;9.946;2023-05-10T05:05:14;12.10;1.00
5842;DHT22;2947;52.276;9.946;2023-05-10T05:07:40;12.10;1.00
5842;DHT22;2947;52.276;9.946;2023-05-10T05:10:07;12.00;1.00
5842;DHT22;2947;52.276;9.946;2023-05-10T05:12:34;12.10;1.00
5842;DHT22;2947;52.276;9.946;2023-05-10T05:15:01;12.10;1.00
5842;DHT22;2947;52.276;9.946;2023-05-10T05:17:27;12.00;1.00
5842;DHT22;2947;52.276;9.946;2023-05-10T05:19:52;12.10;1.00
5842;DHT22;2947;52.276;9.946;2023-05-10T05:22:18;12.10;1.00
5842;DHT22;2947;52.276;9.946;2023-05-10T05:25:02;12.10;1.00
5842;DHT22;2947;52.276;9.946;2023-05-10T05:27:29;12.10;1.00
5842;DHT22;2947;52.276;9.946;2023-05-10T05:29:55;12.20;2.00
5842;DHT22;2947;52.276;9.946;2023-05-10T05:32:22;12.10;17.40
5842;DHT22;2947;52.276;9.946;2023-05-10T05:34:48;12.20;42.50
5842;DHT22;2947;52.276;9.946;2023-05-10T05:37:14;12.20;60.90
5842;DHT22;2947;52.276;9.946;2023-05-10T05:39:41;12.20;53.10
5842;DHT22;2947;52.276;9.946;2023-05-10T05:42:08;12.30;68.60
5842;DHT22;2947;52.276;9.946;2023-05-10T05:44:34;12.30;60.60
5842;DHT22;2947;52.276;9.946;2023-05-10T05:47:00;12.30;47.40
5842;DHT22;2947;52.276;9.946;2023-05-10T05:49:26;12.30;65.60
5842;DHT22;2947;52.276;9.946;2023-05-10T05:51:51;12.30;93.70
5842;DHT22;2947;52.276;9.946;2023-05-10T05:54:17;12.40;99.90
5842;DHT22;2947;52.276;9.946;2023-05-10T05:56:43;12.40;99.90
5842;DHT22;2947;52.276;9.946;2023-05-10T05:59:10;12.40;99.90
5842;DHT22;2947;52.276;9.946;2023-05-10T06:01:36;12.40;99.90
5842;DHT22;2947;52.276;9.946;2023-05-10T06:04:01;12.40;99.90
5842;DHT22;2947;52.276;9.946;2023-05-10T06:06:27;12.50;99.90
5842;DHT22;2947;52.276;9.946;2023-05-10T06:08:53;12.50;99.90
5842;DHT22;2947;52.276;9.946;2023-05-10T06:11:19;12.50;99.90
5842;DHT22;2947;52.276;9.946;2023-05-10T06:13:46;12.40;99.90
5842;DHT22;2947;52.276;9.946;2023-05-10T06:16:12;12.50;99.90
5842;DHT22;2947;52.276;9.946;2023-05-10T06:18:38;12.50;99.90
5842;DHT22;2947;52.276;9.946;2023-05-10T06:21:04;12.60;99.90
5842;DHT22;2947;52.276;9.946;2023-05-10T06:23:30;12.60;99.90
5842;DHT22;2947;52.276;9.946;2023-05-10T06:25:55;12.60;99.90
5842;DHT22;2947;52.276;9.946;2023-05-10T06:28:21;12.60;99.90
5842;DHT22;2947;52.276;9.946;2023-05-10T06:30:47;12.60;99.90
5842;DHT22;2947;52.276;9.946;2023-05-10T06:33:13;12.60;99.90
5842;DHT22;2947;52.276;9.946;2023-05-10T06:35:39;12.60;99.90
5842;DHT22;2947;52.276;9.946;2023-05-10T06:38:05;12.60;99.90
5842;DHT22;2947;52.276;9.946;2023-05-10T06:40:31;12.60;99.90
5842;DHT22;2947;52.276;9.946;2023-05-10T06:42:56;12.70;99.90
5842;DHT22;2947;52.276;9.946;2023-05-10T06:45:22;12.70;99.90
5842;DHT22;2947;52.276;9.946;2023-05-10T06:47:48;12.70;99.90
5842;DHT22;2947;52.276;9.946;2023-05-10T06:50:13;12.70;99.90
5842;DHT22;2947;52.276;9.946;2023-05-10T06:52:39;12.70;99.90
5842;DHT22;2947;52.276;9.946;2023-05-10T06:55:05;12.70;99.90
5842;DHT22;2947;52.276;9.946;2023-05-10T06:57:31;12.70;99.90
5842;DHT22;2947;52.276;9.946;2023-05-10T07:00:01;12.80;99.90
5842;DHT22;2947;52.276;9.946;2023-05-10T07:02:29;12.80;99.90
5842;DHT22;2947;52.276;9.946;2023-05-10T07:04:54;12.80;99.90
5842;DHT22;2947;52.276;9.946;2023-05-10T07:07:20;12.80;99.90
5842;DHT22;2947;52.276;9.946;2023-05-10T07:09:46;12.90;99.90
5842;DHT22;2947;52.276;9.946;2023-05-10T07:12:12;12.90;99.90
5842;DHT22;2947;52.276;9.946;2023-05-10T07:14:37;12.90;99.90
5842;DHT22;2947;52.276;9.946;2023-05-10T07:17:03;12.90;99.90
5842;DHT22;2947;52.276;9.946;2023-05-10T07:19:29;12.90;99.90
5842;DHT22;2947;52.276;9.946;2023-05-10T07:21:55;12.90;99.90
5842;DHT22;2947;52.276;9.946;2023-05-10T07:24:21;13.00;99.90
5842;DHT22;2947;52.276;9.946;2023-05-10T07:26:46;13.10;99.90
5842;DHT22;2947;52.276;9.946;2023-05-10T07:29:12;13.00;99.90
5842;DHT22;2947;52.276;9.946;2023-05-10T07:31:38;13.10;99.90
5842;DHT22;2947;52.276;9.946;2023-05-10T07:34:03;13.10;99.90
5842;DHT22;2947;52.276;9.946;2023-05-10T07:36:29;13.20;99.90
5842;DHT22;2947;52.276;9.946;2023-05-10T07:38:55;13.20;99.90
5842;DHT22;2947;52.276;9.946;2023-05-10T07:41:22;13.20;99.90
5842;DHT22;2947;52.276;9.946;2023-05-10T07:43:48;13.30;99.90
5842;DHT22;2947;52.276;9.946;2023-05-10T07:46:14;13.40;99.90
5842;DHT22;2947;52.276;9.946;2023-05-10T07:48:39;13.40;99.90
5842;DHT22;2947;52.276;9.946;2023-05-10T07:51:05;13.40;99.90
5842;DHT22;2947;52.276;9.946;2023-05-10T07:53:32;13.40;99.90
5842;DHT22;2947;52.276;9.946;2023-05-10T07:55:58;13.40;99.90
5842;DHT22;2947;52.276;9.946;2023-05-10T07:58:24;13.50;99.90
5842;DHT22;2947;52.276;9.946;2023-05-10T08:00:50;13.50;99.90
5842;DHT22;2947;52.276;9.946;2023-05-10T08:03:16;13.60;99.90
5842;DHT22;2947;52.276;9.946;2023-05-10T08:05:42;13.60;99.90
5842;DHT22;2947;52.276;9.946;2023-05-10T08:08:08;13.70;99.90
5842;DHT22;2947;52.276;9.946;2023-05-10T08:10:33;13.70;99.90
5842;DHT22;2947;52.276;9.946;2023-05-10T08:12:59;13.70;99.90
5842;DHT22;2947;52.276;9.946;2023-05-10T08:15:25;13.70;99.90
5842;DHT22;2947;52.276;9.946;2023-05-10T08:17:53;13.80;99.90
5842;DHT22;2947;52.276;9.946;2023-05-10T08:20:19;13.80;99.90
5842;DHT22;2947;52.276;9.946;2023-05-10T08:22:45;13.90;99.90
5842;DHT22;2947;52.276;9.946;2023-05-10T08:25:11;14.00;99.90
5842;DHT22;2947;52.276;9.946;2023-05-10T08:27:37;13.90;99.90
5842;DHT22;2947;52.276;9.946;2023-05-10T08:30:03;13.90;99.90
5842;DHT22;2947;52.276;9.946;2023-05-10T08:32:29;13.90;99.90
5842;DHT22;2947;52.276;9.946;2023-05-10T08:34:55;13.90;99.90
5842;DHT22;2947;52.276;9.946;2023-05-10T08:37:23;13.90;99.90
5842;DHT22;2947;52.276;9.946;2023-05-10T08:39:49;14.00;99.90
5842;DHT22;2947;52.276;9.946;2023-05-10T08:42:18;14.00;99.90
5842;DHT22;2947;52.276;9.946;2023-05-10T08:44:48;14.00;99.90
5842;DHT22;2947;52.276;9.946;2023-05-10T08:47:16;14.00;99.90
5842;DHT22;2947;52.276;9.946;2023-05-10T08:49:43;14.10;99.90
5842;DHT22;2947;52.276;9.946;2023-05-10T08:52:11;14.20;99.90
5842;DHT22;2947;52.276;9.946;2023-05-10T08:54:38;14.30;99.90
5842;DHT22;2947;52.276;9.946;2023-05-10T08:57:04;14.40;99.90
5842;DHT22;2947;52.276;9.946;2023-05-10T08:59:31;14.50;99.90
5842;DHT22;2947;52.276;9.946;2023-05-10T09:02:00;14.50;99.90
5842;DHT22;2947;52.276;9.946;2023-05-10T09:04:27;14.60;99.90
5842;DHT22;2947;52.276;9.946;2023-05-10T09:06:54;14.60;99.90
5842;DHT22;2947;52.276;9.946;2023-05-10T09:09:21;14.70;99.90
5842;DHT22;2947;52.276;9.946;2023-05-10T09:11:47;14.70;99.90
5842;DHT22;2947;52.276;9.946;2023-05-10T09:14:13;14.70;99.90
5842;DHT22;2947;52.276;9.946;2023-05-10T09:16:40;14.70;99.90
5842;DHT22;2947;52.276;9.946;2023-05-10T09:19:07;14.70;99.90
5842;DHT22;2947;52.276;9.946;2023-05-10T09:21:35;14.80;99.90
5842;DHT22;2947;52.276;9.946;2023-05-10T09:24:05;14.80;99.90
5842;DHT22;2947;52.276;9.946;2023-05-10T09:26:32;14.80;99.90
5842;DHT22;2947;52.276;9.946;2023-05-10T09:28:59;14.80;99.90
5842;DHT22;2947;52.276;9.946;2023-05-10T09:31:51;14.80;99.90
5842;DHT22;2947;52.276;9.946;2023-05-10T09:34:29;14.70;99.90
5842;DHT22;2947;52.276;9.946;2023-05-10T09:36:58;14.70;99.90
5842;DHT22;2947;52.276;9.946;2023-05-10T09:39:33;14.70;99.90
5842;DHT22;2947;52.276;9.946;2023-05-10T09:42:01;14.80;99.90
5842;DHT22;2947;52.276;9.946;2023-05-10T09:44:32;14.80;99.90
5842;DHT22;2947;52.276;9.946;2023-05-10T09:46:59;14.90;99.90
5842;DHT22;2947;52.276;9.946;2023-05-10T09:49:25;14.90;99.90
5842;DHT22;2947;52.276;9.946;2023-05-10T09:52:03;14.80;99.90
5842;DHT22;2947;52.276;9.946;2023-05-10T09:54:30;14.90;99.90
5842;DHT22;2947;52.276;9.946;2023-05-10T09:56:57;14.90;99.90
5842;DHT22;2947;52.276;9.946;2023-05-10T09:59:25;14.90;99.90
5842;DHT22;2947;52.276;9.946;2023-05-10T10:01:55;15.00;99.90
5842;DHT22;2947;52.276;9.946;2023-05-10T10:04:22;15.00;99.90
5842;DHT22;2947;52.276;9.946;2023-05-10T10:06:59;15.00;99.90
5842;DHT22;2947;52.276;9.946;2023-05-10T10:09:26;15.10;99.90
5842;DHT22;2947;52.276;9.946;2023-05-10T10:11:52;15.10;99.90
5842;DHT22;2947;52.276;9.946;2023-05-10T10:14:20;15.10;99.90
5842;DHT22;2947;52.276;9.946;2023-05-10T10:16:47;15.20;99.90
5842;DHT22;2947;52.276;9.946;2023-05-10T10:19:15;15.20;99.90
5842;DHT22;2947;52.276;9.946;2023-05-10T10:21:40;15.40;99.90
5842;DHT22;2947;52.276;9.946;2023-05-10T10:24:06;15.30;99.90
5842;DHT22;2947;52.276;9.946;2023-05-10T10:26:36;15.40;99.90
5842;DHT22;2947;52.276;9.946;2023-05-10T10:29:25;15.40;99.90
5842;DHT22;2947;52.276;9.946;2023-05-10T10:32:08;15.40;99.90
5842;DHT22;2947;52.276;9.946;2023-05-10T10:34:38;15.50;99.90
5842;DHT22;2947;52.276;9.946;2023-05-10T10:37:05;15.60;99.90
5842;DHT22;2947;52.276;9.946;2023-05-10T10:39:32;15.70;99.90
5842;DHT22;2947;52.276;9.946;2023-05-10T10:41:58;15.80;99.90
5842;DHT22;2947;52.276;9.946;2023-05-10T10:52:28;16.20;99.90
5842;DHT22;2947;52.276;9.946;2023-05-10T10:55:09;16.30;99.90
5842;DHT22;2947;52.276;9.946;2023-05-10T11:02:47;16.60;38.10
5842;DHT22;2947;52.276;9.946;2023-05-10T11:08:07;16.80;84.20
5842;DHT22;2947;52.276;9.946;2023-05-10T11:10:48;16.80;99.90
5842;DHT22;2947;52.276;9.946;2023-05-10T11:13:40;16.90;78.40
5842;DHT22;2947;52.276;9.946;2023-05-10T11:19:02;16.80;1.00
5842;DHT22;2947;52.276;9.946;2023-05-10T11:21:33;16.90;1.00
5842;DHT22;2947;52.276;9.946;2023-05-10T11:24:00;17.00;28.50
5842;DHT22;2947;52.276;9.946;2023-05-10T11:26:33;16.90;1.00
5842;DHT22;2947;52.276;9.946;2023-05-10T11:29:00;17.10;22.30
5842;DHT22;2947;52.276;9.946;2023-05-10T11:31:27;17.20;4.40
5842;DHT22;2947;52.276;9.946;2023-05-10T11:33:58;17.20;1.00
5842;DHT22;2947;52.276;9.946;2023-05-10T11:36:29;17.10;1.00
5842;DHT22;2947;52.276;9.946;2023-05-10T11:38:58;17.10;1.00
5842;DHT22;2947;52.276;9.946;2023-05-10T11:41:24;17.10;1.00
5842;DHT22;2947;52.276;9.946;2023-05-10T11:43:52;17.40;15.50
5842;DHT22;2947;52.276;9.946;2023-05-10T11:46:20;17.60;1.00
5842;DHT22;2947;52.276;9.946;2023-05-10T11:48:50;17.60;1.00
5842;DHT22;2947;52.276;9.946;2023-05-10T11:51:20;17.80;1.00
5842;DHT22;2947;52.276;9.946;2023-05-10T11:53:47;17.90;1.00
5842;DHT22;2947;52.276;9.946;2023-05-10T11:56:15;17.90;99.90
5842;DHT22;2947;52.276;9.946;2023-05-10T11:58:41;18.00;99.90
5842;DHT22;2947;52.276;9.946;2023-05-10T12:01:07;18.00;99.90
5842;DHT22;2947;52.276;9.946;2023-05-10T12:03:34;18.20;1.00
5842;DHT22;2947;52.276;9.946;2023-05-10T12:06:01;18.40;99.90
5842;DHT22;2947;52.276;9.946;2023-05-10T12:08:29;18.50;1.00
5842;DHT22;2947;52.276;9.946;2023-05-10T12:11:07;18.70;1.00
5842;DHT22;2947;52.276;9.946;2023-05-10T12:13:39;18.70;1.00
5842;DHT22;2947;52.276;9.946;2023-05-10T12:16:18;18.90;99.90
5842;DHT22;2947;52.276;9.946;2023-05-10T12:18:49;19.10;99.90
5842;DHT22;2947;52.276;9.946;2023-05-10T12:21:16;19.10;1.00
5842;DHT22;2947;52.276;9.946;2023-05-10T12:23:45;19.20;1.00
5842;DHT22;2947;52.276;9.946;2023-05-10T12:26:13;19.30;1.00
5842;DHT22;2947;52.276;9.946;2023-05-10T12:28:39;19.50;1.00
5842;DHT22;2947;52.276;9.946;2023-05-10T12:31:06;19.50;1.00
5842;DHT22;2947;52.276;9.946;2023-05-10T12:33:40;19.70;1.00
5842;DHT22;2947;52.276;9.946;2023-05-10T12:36:12;19.60;1.00
5842;DHT22;2947;52.276;9.946;2023-05-10T12:38:41;19.80;1.00
5842;DHT22;2947;52.276;9.946;2023-05-10T12:41:11;19.90;99.90
5842;DHT22;2947;52.276;9.946;2023-05-10T12:43:38;19.70;1.00
5842;DHT22;2947;52.276;9.946;2023-05-10T12:46:08;19.50;1.00
5842;DHT22;2947;52.276;9.946;2023-05-10T12:48:36;19.20;99.90
5842;DHT22;2947;52.276;9.946;2023-05-10T12:51:03;18.90;17.80
5842;DHT22;2947;52.276;9.946;2023-05-10T12:53:30;18.60;1.00
5842;DHT22;2947;52.276;9.946;2023-05-10T12:55:56;18.20;92.80
5842;DHT22;2947;52.276;9.946;2023-05-10T12:58:22;17.90;99.90
5842;DHT22;2947;52.276;9.946;2023-05-10T13:00:48;17.70;1.00
5842;DHT22;2947;52.276;9.946;2023-05-10T13:03:14;17.50;1.00
5842;DHT22;2947;52.276;9.946;2023-05-10T13:05:41;17.40;1.00
5842;DHT22;2947;52.276;9.946;2023-05-10T13:08:06;17.30;1.00
5842;DHT22;2947;52.276;9.946;2023-05-10T13:10:32;17.20;1.00
5842;DHT22;2947;52.276;9.946;2023-05-10T13:12:58;17.20;1.00
5842;DHT22;2947;52.276;9.946;2023-05-10T13:15:25;17.20;1.00
5842;DHT22;2947;52.276;9.946;2023-05-10T13:17:51;17.20;1.00
5842;DHT22;2947;52.276;9.946;2023-05-10T13:20:17;17.20;1.00
5842;DHT22;2947;52.276;9.946;2023-05-10T13:22:43;17.20;1.00
5842;DHT22;2947;52.276;9.946;2023-05-10T13:25:10;17.20;1.00
5842;DHT22;2947;52.276;9.946;2023-05-10T13:27:36;17.20;1.00
5842;DHT22;2947;52.276;9.946;2023-05-10T13:30:03;17.30;1.00
5842;DHT22;2947;52.276;9.946;2023-05-10T13:32:30;17.40;1.00
5842;DHT22;2947;52.276;9.946;2023-05-10T13:34:56;17.50;1.00
5842;DHT22;2947;52.276;9.946;2023-05-10T13:37:21;17.50;99.90
5842;DHT22;2947;52.276;9.946;2023-05-10T13:39:47;17.60;99.90
5842;DHT22;2947;52.276;9.946;2023-05-10T13:42:13;17.70;99.90
5842;DHT22;2947;52.276;9.946;2023-05-10T13:44:39;17.80;99.90
5842;DHT22;2947;52.276;9.946;2023-05-10T13:47:05;17.90;1.00
5842;DHT22;2947;52.276;9.946;2023-05-10T13:49:31;18.00;1.00
5842;DHT22;2947;52.276;9.946;2023-05-10T13:51:57;18.00;1.00
5842;DHT22;2947;52.276;9.946;2023-05-10T13:54:23;18.00;1.00
5842;DHT22;2947;52.276;9.946;2023-05-10T13:56:49;17.90;99.90
5842;DHT22;2947;52.276;9.946;2023-05-10T13:59:15;17.90;99.90
5842;DHT22;2947;52.276;9.946;2023-05-10T14:01:41;18.00;99.90
5842;DHT22;2947;52.276;9.946;2023-05-10T14:04:08;18.00;99.90
5842;DHT22;2947;52.276;9.946;2023-05-10T14:06:37;18.00;1.00
5842;DHT22;2947;52.276;9.946;2023-05-10T14:09:03;18.00;79.90
5842;DHT22;2947;52.276;9.946;2023-05-10T14:11:29;18.00;15.60
5842;DHT22;2947;52.276;9.946;2023-05-10T14:13:54;18.00;1.00
5842;DHT22;2947;52.276;9.946;2023-05-10T14:16:20;17.90;1.00
5842;DHT22;2947;52.276;9.946;2023-05-10T14:18:46;18.00;1.00
5842;DHT22;2947;52.276;9.946;2023-05-10T14:21:12;18.00;1.00
5842;DHT22;2947;52.276;9.946;2023-05-10T14:23:38;18.00;1.00
5842;DHT22;2947;52.276;9.946;2023-05-10T14:26:04;18.00;1.00
5842;DHT22;2947;52.276;9.946;2023-05-10T14:28:30;18.00;1.00
5842;DHT22;2947;52.276;9.946;2023-05-10T14:30:55;18.00;1.00
5842;DHT22;2947;52.276;9.946;2023-05-10T14:33:21;18.10;1.00
5842;DHT22;2947;52.276;9.946;2023-05-10T14:35:47;18.20;99.90
5842;DHT22;2947;52.276;9.946;2023-05-10T14:38:14;18.20;99.90
5842;DHT22;2947;52.276;9.946;2023-05-10T14:40:40;18.20;1.00
5842;DHT22;2947;52.276;9.946;2023-05-10T14:43:05;18.30;99.90
5842;DHT22;2947;52.276;9.946;2023-05-10T14:45:31;18.30;1.00
5842;DHT22;2947;52.276;9.946;2023-05-10T14:47:57;18.30;99.90
5842;DHT22;2947;52.276;9.946;2023-05-10T14:50:23;18.30;99.90
5842;DHT22;2947;52.276;9.946;2023-05-10T14:52:49;18.40;99.90
5842;DHT22;2947;52.276;9.946;2023-05-10T14:55:15;18.40;53.90
5842;DHT22;2947;52.276;9.946;2023-05-10T14:57:41;18.40;1.00
5842;DHT22;2947;52.276;9.946;2023-05-10T15:00:08;18.40;99.90
5842;DHT22;2947;52.276;9.946;2023-05-10T15:02:34;18.30;1.00
5842;DHT22;2947;52.276;9.946;2023-05-10T15:05:00;18.30;99.90
5842;DHT22;2947;52.276;9.946;2023-05-10T15:07:26;18.30;1.00
5842;DHT22;2947;52.276;9.946;2023-05-10T15:09:51;18.30;93.70
5842;DHT22;2947;52.276;9.946;2023-05-10T15:12:19;18.20;1.00
5842;DHT22;2947;52.276;9.946;2023-05-10T15:14:46;18.20;1.00
5842;DHT22;2947;52.276;9.946;2023-05-10T15:17:11;18.30;99.90
5842;DHT22;2947;52.276;9.946;2023-05-10T15:19:37;18.80;99.90
5842;DHT22;2947;52.276;9.946;2023-05-10T15:22:04;18.30;99.90
5842;DHT22;2947;52.276;9.946;2023-05-10T15:24:31;18.30;1.00
5842;DHT22;2947;52.276;9.946;2023-05-10T15:26:57;18.30;1.00
5842;DHT22;2947;52.276;9.946;2023-05-10T15:29:22;18.30;1.00
5842;DHT22;2947;52.276;9.946;2023-05-10T15:31:49;18.30;99.90
5842;DHT22;2947;52.276;9.946;2023-05-10T15:34:16;18.30;1.00
5842;DHT22;2947;52.276;9.946;2023-05-10T15:36:43;18.30;1.00
5842;DHT22;2947;52.276;9.946;2023-05-10T15:39:09;18.30;99.90
5842;DHT22;2947;52.276;9.946;2023-05-10T15:41:36;18.30;97.80
5842;DHT22;2947;52.276;9.946;2023-05-10T15:44:02;18.30;1.00
5842;DHT22;2947;52.276;9.946;2023-05-10T15:46:28;18.10;1.00
5842;DHT22;2947;52.276;9.946;2023-05-10T15:48:54;18.10;1.00
5842;DHT22;2947;52.276;9.946;2023-05-10T15:51:21;18.20;1.00
5842;DHT22;2947;52.276;9.946;2023-05-10T15:53:47;18.20;99.90
5842;DHT22;2947;52.276;9.946;2023-05-10T15:56:13;18.20;99.90
5842;DHT22;2947;52.276;9.946;2023-05-10T15:58:40;18.20;1.00
5842;DHT22;2947;52.276;9.946;2023-05-10T16:01:06;18.10;1.00
5842;DHT22;2947;52.276;9.946;2023-05-10T16:03:33;17.90;53.80
5842;DHT22;2947;52.276;9.946;2023-05-10T16:06:00;17.70;99.90
5842;DHT22;2947;52.276;9.946;2023-05-10T16:08:27;17.50;1.00
5842;DHT22;2947;52.276;9.946;2023-05-10T16:10:55;17.20;99.90
5842;DHT22;2947;52.276;9.946;2023-05-10T16:13:21;17.10;1.00
5842;DHT22;2947;52.276;9.946;2023-05-10T16:15:47;16.80;1.00
5842;DHT22;2947;52.276;9.946;2023-05-10T16:18:13;16.90;1.00
5842;DHT22;2947;52.276;9.946;2023-05-10T16:20:39;16.60;1.00
5842;DHT22;2947;52.276;9.946;2023-05-10T16:23:06;16.50;1.00
5842;DHT22;2947;52.276;9.946;2023-05-10T16:25:32;16.50;1.00
5842;DHT22;2947;52.276;9.946;2023-05-10T16:27:59;16.50;1.00
5842;DHT22;2947;52.276;9.946;2023-05-10T16:30:25;16.50;1.00
5842;DHT22;2947;52.276;9.946;2023-05-10T16:32:54;16.60;1.00
5842;DHT22;2947;52.276;9.946;2023-05-10T16:35:20;16.50;1.00
5842;DHT22;2947;52.276;9.946;2023-05-10T16:37:48;16.40;1.00
5842;DHT22;2947;52.276;9.946;2023-05-10T16:40:14;16.30;1.00
5842;DHT22;2947;52.276;9.946;2023-05-10T16:42:40;16.40;1.00
5842;DHT22;2947;52.276;9.946;2023-05-10T16:45:06;16.20;1.00
5842;DHT22;2947;52.276;9.946;2023-05-10T16:47:33;16.00;1.00
5842;DHT22;2947;52.276;9.946;2023-05-10T16:50:00;16.00;1.00
5842;DHT22;2947;52.276;9.946;2023-05-10T16:52:27;16.00;17.60